createdAt,value
2022-07-31T00:00:58.229Z,1012.85
2022-07-31T00:01:58.214Z,1012.82
2022-07-31T00:02:58.172Z,1012.80
2022-07-31T00:03:58.211Z,1012.81
2022-07-31T00:04:58.032Z,1012.79
2022-07-31T00:05:57.947Z,1012.79
2022-07-31T00:06:57.951Z,1012.77
2022-07-31T00:07:57.834Z,1012.80
2022-07-31T00:08:57.763Z,1012.81
2022-07-31T00:09:57.752Z,1012.80
2022-07-31T00:10:57.652Z,1012.80
2022-07-31T00:11:57.648Z,1012.82
2022-07-31T00:12:57.544Z,1012.79
2022-07-31T00:13:58.752Z,1012.80
2022-07-31T00:14:57.391Z,1012.79
2022-07-31T00:15:57.385Z,1012.76
2022-07-31T00:16:57.282Z,1012.78
2022-07-31T00:17:57.295Z,1012.80
2022-07-31T00:18:57.186Z,1012.78
2022-07-31T00:19:57.114Z,1012.74
2022-07-31T00:20:57.094Z,1012.72
2022-07-31T00:21:57.009Z,1012.73
2022-07-31T00:22:56.928Z,1012.76
2022-07-31T00:23:56.910Z,1012.70
2022-07-31T00:24:56.819Z,1012.73
2022-07-31T00:25:56.745Z,1012.74
2022-07-31T00:26:56.724Z,1012.72
2022-07-31T00:27:56.625Z,1012.74
2022-07-31T00:28:56.632Z,1012.77
2022-07-31T00:29:56.567Z,1012.76
2022-07-31T00:30:56.460Z,1012.75
2022-07-31T00:31:56.461Z,1012.69
2022-07-31T00:32:56.444Z,1012.73
2022-07-31T00:33:56.266Z,1012.70
2022-07-31T00:34:56.264Z,1012.69
2022-07-31T00:35:56.162Z,1012.64
2022-07-31T00:36:56.102Z,1012.69
2022-07-31T00:38:24.766Z,1012.68
2022-07-31T00:38:55.946Z,1012.69
2022-07-31T00:39:55.908Z,1012.66
2022-07-31T00:40:55.894Z,1012.69
2022-07-31T00:41:55.808Z,1012.66
2022-07-31T00:42:55.721Z,1012.66
2022-07-31T00:43:55.705Z,1012.65
2022-07-31T00:44:55.621Z,1012.65
2022-07-31T00:45:58.913Z,1012.65
2022-07-31T00:46:55.525Z,1012.61
2022-07-31T00:47:55.950Z,1012.64
2022-07-31T00:48:55.407Z,1012.56
2022-07-31T00:49:55.341Z,1012.61
2022-07-31T00:50:55.280Z,1012.60
2022-07-31T00:51:55.168Z,1012.58
2022-07-31T00:52:55.143Z,1012.61
2022-07-31T00:53:55.074Z,1012.57
2022-07-31T00:54:55.061Z,1012.58
2022-07-31T00:55:54.964Z,1012.55
2022-07-31T00:56:54.957Z,1012.55
2022-07-31T00:57:54.874Z,1012.52
2022-07-31T00:58:54.776Z,1012.55
2022-07-31T00:59:54.703Z,1012.55
2022-07-31T01:00:54.764Z,1012.53
2022-07-31T01:01:54.600Z,1012.50
2022-07-31T01:02:54.520Z,1012.53
2022-07-31T01:03:54.507Z,1012.50
2022-07-31T01:04:54.429Z,1012.50
2022-07-31T01:05:54.365Z,1012.52
2022-07-31T01:06:54.285Z,1012.52
2022-07-31T01:07:54.190Z,1012.47
2022-07-31T01:08:54.117Z,1012.50
2022-07-31T01:09:54.054Z,1012.49
2022-07-31T01:10:53.994Z,1012.52
2022-07-31T01:11:53.940Z,1012.49
2022-07-31T01:12:54.426Z,1012.48
2022-07-31T01:13:53.811Z,1012.47
2022-07-31T01:14:53.755Z,1012.48
2022-07-31T01:15:53.689Z,1012.45
2022-07-31T01:16:53.639Z,1012.45
2022-07-31T01:17:53.573Z,1012.46
2022-07-31T01:18:53.515Z,1012.44
2022-07-31T01:19:53.450Z,1012.49
2022-07-31T01:20:53.388Z,1012.47
2022-07-31T01:21:53.334Z,1012.51
2022-07-31T01:22:53.271Z,1012.51
2022-07-31T01:23:55.269Z,1012.51
2022-07-31T01:24:53.164Z,1012.53
2022-07-31T01:25:53.095Z,1012.51
2022-07-31T01:26:53.029Z,1012.52
2022-07-31T01:27:52.967Z,1012.54
2022-07-31T01:28:52.912Z,1012.52
2022-07-31T01:29:52.851Z,1012.54
2022-07-31T01:31:00.422Z,1012.52
2022-07-31T01:31:52.747Z,1012.53
2022-07-31T01:32:52.670Z,1012.50
2022-07-31T01:33:52.607Z,1012.51
2022-07-31T01:34:52.550Z,1012.52
2022-07-31T01:35:52.493Z,1012.47
2022-07-31T01:36:52.430Z,1012.49
2022-07-31T01:37:52.367Z,1012.46
2022-07-31T01:38:52.311Z,1012.47
2022-07-31T01:39:52.281Z,1012.47
2022-07-31T01:40:52.195Z,1012.49
2022-07-31T01:41:52.124Z,1012.49
2022-07-31T01:42:52.077Z,1012.49
2022-07-31T01:43:52.006Z,1012.46
2022-07-31T01:44:51.972Z,1012.47
2022-07-31T01:45:51.890Z,1012.47
2022-07-31T01:46:51.823Z,1012.47
2022-07-31T01:47:51.972Z,1012.51
2022-07-31T01:48:51.748Z,1012.48
2022-07-31T01:49:51.650Z,1012.52
2022-07-31T01:50:51.587Z,1012.47
2022-07-31T01:52:02.922Z,1012.49
2022-07-31T01:52:51.472Z,1012.47
2022-07-31T01:53:51.404Z,1012.48
2022-07-31T01:54:51.341Z,1012.53
2022-07-31T01:56:02.823Z,1012.53
2022-07-31T01:56:51.219Z,1012.55
2022-07-31T01:57:51.169Z,1012.53
2022-07-31T01:58:51.104Z,1012.53
2022-07-31T01:59:51.041Z,1012.57
2022-07-31T02:00:51.040Z,1012.58
2022-07-31T02:01:51.512Z,1012.53
2022-07-31T02:02:50.856Z,1012.50
2022-07-31T02:03:51.460Z,1012.48
2022-07-31T02:04:50.737Z,1012.47
2022-07-31T02:05:50.681Z,1012.45
2022-07-31T02:06:50.613Z,1012.42
2022-07-31T02:07:50.558Z,1012.45
2022-07-31T02:08:50.499Z,1012.42
2022-07-31T02:09:58.258Z,1012.46
2022-07-31T02:10:50.375Z,1012.45
2022-07-31T02:12:03.914Z,1012.40
2022-07-31T02:12:50.257Z,1012.42
2022-07-31T02:13:50.193Z,1012.41
2022-07-31T02:14:50.135Z,1012.43
2022-07-31T02:15:50.079Z,1012.40
2022-07-31T02:16:50.014Z,1012.37
2022-07-31T02:17:49.957Z,1012.38
2022-07-31T02:18:49.903Z,1012.40
2022-07-31T02:19:59.692Z,1012.39
2022-07-31T02:20:49.787Z,1012.39
2022-07-31T02:21:49.715Z,1012.44
2022-07-31T02:22:49.658Z,1012.45
2022-07-31T02:23:49.604Z,1012.48
2022-07-31T02:24:49.534Z,1012.48
2022-07-31T02:25:49.480Z,1012.52
2022-07-31T02:26:49.416Z,1012.48
2022-07-31T02:27:53.896Z,1012.49
2022-07-31T02:28:49.311Z,1012.45
2022-07-31T02:29:49.235Z,1012.44
2022-07-31T02:30:49.172Z,1012.46
2022-07-31T02:32:01.980Z,1012.43
2022-07-31T02:32:49.044Z,1012.44
2022-07-31T02:33:48.985Z,1012.42
2022-07-31T02:34:48.925Z,1012.45
2022-07-31T02:35:48.866Z,1012.44
2022-07-31T02:36:48.799Z,1012.46
2022-07-31T02:37:48.784Z,1012.44
2022-07-31T02:38:48.687Z,1012.44
2022-07-31T02:39:48.627Z,1012.45
2022-07-31T02:40:48.569Z,1012.43
2022-07-31T02:41:48.499Z,1012.43
2022-07-31T02:42:48.440Z,1012.43
2022-07-31T02:43:48.393Z,1012.44
2022-07-31T02:44:48.339Z,1012.41
2022-07-31T02:45:48.271Z,1012.44
2022-07-31T02:46:48.210Z,1012.41
2022-07-31T02:47:48.151Z,1012.42
2022-07-31T02:48:48.148Z,1012.43
2022-07-31T02:49:48.015Z,1012.40
2022-07-31T02:50:47.963Z,1012.39
2022-07-31T02:51:47.902Z,1012.42
2022-07-31T02:52:47.904Z,1012.42
2022-07-31T02:53:47.855Z,1012.45
2022-07-31T02:54:47.736Z,1012.41
2022-07-31T02:55:47.708Z,1012.44
2022-07-31T02:56:47.632Z,1012.37
2022-07-31T02:57:47.541Z,1012.36
2022-07-31T02:58:47.486Z,1012.34
2022-07-31T02:59:47.420Z,1012.30
2022-07-31T03:00:47.415Z,1012.28
2022-07-31T03:01:47.299Z,1012.27
2022-07-31T03:02:47.236Z,1012.23
2022-07-31T03:03:47.205Z,1012.28
2022-07-31T03:04:47.128Z,1012.28
2022-07-31T03:05:47.053Z,1012.25
2022-07-31T03:06:46.999Z,1012.24
2022-07-31T03:07:46.937Z,1012.27
2022-07-31T03:08:46.863Z,1012.24
2022-07-31T03:09:46.805Z,1012.23
2022-07-31T03:10:46.744Z,1012.23
2022-07-31T03:11:46.682Z,1012.22
2022-07-31T03:12:46.627Z,1012.25
2022-07-31T03:13:46.565Z,1012.24
2022-07-31T03:14:46.498Z,1012.23
2022-07-31T03:15:50.992Z,1012.24
2022-07-31T03:16:46.384Z,1012.23
2022-07-31T03:17:46.317Z,1012.21
2022-07-31T03:18:46.267Z,1012.21
2022-07-31T03:19:46.205Z,1012.20
2022-07-31T03:20:46.141Z,1012.19
2022-07-31T03:21:46.078Z,1012.20
2022-07-31T03:22:46.027Z,1012.24
2022-07-31T03:23:45.963Z,1012.22
2022-07-31T03:24:45.893Z,1012.20
2022-07-31T03:25:45.858Z,1012.21
2022-07-31T03:26:45.771Z,1012.21
2022-07-31T03:27:45.720Z,1012.21
2022-07-31T03:28:45.661Z,1012.18
2022-07-31T03:29:45.588Z,1012.19
2022-07-31T03:30:45.529Z,1012.17
2022-07-31T03:31:45.480Z,1012.17
2022-07-31T03:32:45.413Z,1012.18
2022-07-31T03:33:45.349Z,1012.15
2022-07-31T03:34:45.318Z,1012.16
2022-07-31T03:35:45.238Z,1012.16
2022-07-31T03:36:45.185Z,1012.12
2022-07-31T03:37:45.105Z,1012.18
2022-07-31T03:38:50.116Z,1012.16
2022-07-31T03:39:44.987Z,1012.16
2022-07-31T03:40:44.930Z,1012.15
2022-07-31T03:41:44.871Z,1012.12
2022-07-31T03:42:44.802Z,1012.15
2022-07-31T03:43:48.049Z,1012.16
2022-07-31T03:44:44.677Z,1012.18
2022-07-31T03:45:44.632Z,1012.16
2022-07-31T03:46:44.561Z,1012.16
2022-07-31T03:47:44.494Z,1012.12
2022-07-31T03:48:44.664Z,1012.15
2022-07-31T03:49:44.379Z,1012.17
2022-07-31T03:50:44.313Z,1012.15
2022-07-31T03:51:44.253Z,1012.15
2022-07-31T03:52:44.237Z,1012.14
2022-07-31T03:53:44.133Z,1012.12
2022-07-31T03:54:44.076Z,1012.21
2022-07-31T03:55:44.008Z,1012.13
2022-07-31T03:56:44.991Z,1012.21
2022-07-31T03:57:43.887Z,1012.16
2022-07-31T03:58:48.008Z,1012.17
2022-07-31T03:59:48.642Z,1012.19
2022-07-31T04:00:43.703Z,1012.17
2022-07-31T04:01:58.233Z,1012.18
2022-07-31T04:02:43.644Z,1012.17
2022-07-31T04:03:43.541Z,1012.21
2022-07-31T04:04:43.458Z,1012.23
2022-07-31T04:05:43.400Z,1012.26
2022-07-31T04:06:43.364Z,1012.24
2022-07-31T04:07:43.317Z,1012.23
2022-07-31T04:08:43.250Z,1012.25
2022-07-31T04:09:43.158Z,1012.25
2022-07-31T04:10:43.170Z,1012.24
2022-07-31T04:11:43.039Z,1012.20
2022-07-31T04:12:42.970Z,1012.21
2022-07-31T04:13:42.917Z,1012.24
2022-07-31T04:14:42.851Z,1012.21
2022-07-31T04:15:42.830Z,1012.22
2022-07-31T04:16:42.727Z,1012.24
2022-07-31T04:17:42.676Z,1012.28
2022-07-31T04:18:42.609Z,1012.28
2022-07-31T04:19:42.547Z,1012.24
2022-07-31T04:20:42.492Z,1012.27
2022-07-31T04:21:42.423Z,1012.26
2022-07-31T04:22:42.369Z,1012.26
2022-07-31T04:23:42.343Z,1012.25
2022-07-31T04:24:42.252Z,1012.20
2022-07-31T04:25:42.198Z,1012.24
2022-07-31T04:26:42.131Z,1012.23
2022-07-31T04:27:48.284Z,1012.23
2022-07-31T04:28:42.023Z,1012.24
2022-07-31T04:29:41.950Z,1012.25
2022-07-31T04:30:41.884Z,1012.26
2022-07-31T04:31:41.817Z,1012.26
2022-07-31T04:32:41.764Z,1012.24
2022-07-31T04:33:46.456Z,1012.24
2022-07-31T04:34:41.687Z,1012.24
2022-07-31T04:35:41.574Z,1012.23
2022-07-31T04:36:41.532Z,1012.28
2022-07-31T04:37:48.134Z,1012.26
2022-07-31T04:38:41.389Z,1012.27
2022-07-31T04:39:41.339Z,1012.34
2022-07-31T04:40:41.281Z,1012.29
2022-07-31T04:41:41.230Z,1012.31
2022-07-31T04:42:41.157Z,1012.32
2022-07-31T04:43:41.091Z,1012.32
2022-07-31T04:44:41.067Z,1012.28
2022-07-31T04:45:40.966Z,1012.28
2022-07-31T04:46:40.906Z,1012.27
2022-07-31T04:47:40.854Z,1012.28
2022-07-31T04:48:41.352Z,1012.25
2022-07-31T04:49:40.737Z,1012.26
2022-07-31T04:50:40.676Z,1012.31
2022-07-31T04:51:40.605Z,1012.29
2022-07-31T04:52:40.544Z,1012.24
2022-07-31T04:53:40.482Z,1012.23
2022-07-31T04:54:40.421Z,1012.28
2022-07-31T04:55:40.376Z,1012.26
2022-07-31T04:56:40.316Z,1012.23
2022-07-31T04:57:40.248Z,1012.24
2022-07-31T04:58:40.181Z,1012.25
2022-07-31T04:59:59.632Z,1012.23
2022-07-31T05:00:40.058Z,1012.22
2022-07-31T05:01:40.051Z,1012.23
2022-07-31T05:02:39.967Z,1012.26
2022-07-31T05:03:39.888Z,1012.25
2022-07-31T05:04:39.822Z,1012.27
2022-07-31T05:05:39.793Z,1012.30
2022-07-31T05:06:39.698Z,1012.28
2022-07-31T05:07:39.648Z,1012.31
2022-07-31T05:08:39.576Z,1012.30
2022-07-31T05:09:39.522Z,1012.34
2022-07-31T05:10:39.472Z,1012.31
2022-07-31T05:11:39.405Z,1012.30
2022-07-31T05:12:39.335Z,1012.34
2022-07-31T05:13:39.292Z,1012.37
2022-07-31T05:14:39.229Z,1012.41
2022-07-31T05:15:39.178Z,1012.41
2022-07-31T05:16:39.095Z,1012.44
2022-07-31T05:17:39.033Z,1012.40
2022-07-31T05:18:38.973Z,1012.42
2022-07-31T05:19:38.915Z,1012.44
2022-07-31T05:20:38.856Z,1012.43
2022-07-31T05:21:52.881Z,1012.43
2022-07-31T05:22:38.763Z,1012.49
2022-07-31T05:23:38.684Z,1012.46
2022-07-31T05:24:38.630Z,1012.45
2022-07-31T05:25:38.552Z,1012.44
2022-07-31T05:26:38.532Z,1012.40
2022-07-31T05:27:39.146Z,1012.46
2022-07-31T05:28:38.372Z,1012.47
2022-07-31T05:29:38.318Z,1012.41
2022-07-31T05:30:38.261Z,1012.42
2022-07-31T05:31:38.202Z,1012.46
2022-07-31T05:32:38.159Z,1012.46
2022-07-31T05:33:38.094Z,1012.45
2022-07-31T05:34:38.020Z,1012.44
2022-07-31T05:35:37.970Z,1012.49
2022-07-31T05:36:37.903Z,1012.48
2022-07-31T05:37:37.851Z,1012.47
2022-07-31T05:38:37.790Z,1012.45
2022-07-31T05:39:37.736Z,1012.44
2022-07-31T05:40:37.672Z,1012.49
2022-07-31T05:41:37.630Z,1012.47
2022-07-31T05:42:37.558Z,1012.49
2022-07-31T05:43:37.502Z,1012.48
2022-07-31T05:44:37.450Z,1012.45
2022-07-31T05:45:37.384Z,1012.47
2022-07-31T05:46:37.333Z,1012.50
2022-07-31T05:47:39.725Z,1012.52
2022-07-31T05:48:37.205Z,1012.56
2022-07-31T05:49:37.282Z,1012.54
2022-07-31T05:50:37.089Z,1012.62
2022-07-31T05:51:37.036Z,1012.61
2022-07-31T05:52:36.979Z,1012.65
2022-07-31T05:53:36.926Z,1012.61
2022-07-31T05:54:36.863Z,1012.62
2022-07-31T05:55:36.823Z,1012.64
2022-07-31T05:56:36.747Z,1012.61
2022-07-31T05:57:36.686Z,1012.63
2022-07-31T05:58:36.636Z,1012.66
2022-07-31T05:59:36.575Z,1012.65
2022-07-31T06:00:36.523Z,1012.65
2022-07-31T06:01:36.576Z,1012.66
2022-07-31T06:02:36.442Z,1012.63
2022-07-31T06:03:51.587Z,1012.66
2022-07-31T06:04:36.286Z,1012.65
2022-07-31T06:05:36.230Z,1012.61
2022-07-31T06:06:36.187Z,1012.57
2022-07-31T06:07:36.122Z,1012.58
2022-07-31T06:08:36.059Z,1012.59
2022-07-31T06:09:36.001Z,1012.58
2022-07-31T06:10:35.954Z,1012.59
2022-07-31T06:11:35.908Z,1012.61
2022-07-31T06:12:35.836Z,1012.58
2022-07-31T06:13:35.784Z,1012.62
2022-07-31T06:14:35.741Z,1012.59
2022-07-31T06:15:36.711Z,1012.62
2022-07-31T06:16:35.609Z,1012.58
2022-07-31T06:17:44.167Z,1012.59
2022-07-31T06:18:35.497Z,1012.61
2022-07-31T06:19:35.445Z,1012.61
2022-07-31T06:20:35.380Z,1012.64
2022-07-31T06:21:35.350Z,1012.63
2022-07-31T06:22:35.278Z,1012.65
2022-07-31T06:23:35.217Z,1012.68
2022-07-31T06:24:35.170Z,1012.66
2022-07-31T06:25:39.130Z,1012.66
2022-07-31T06:26:35.051Z,1012.65
2022-07-31T06:27:35.298Z,1012.59
2022-07-31T06:28:47.954Z,1012.61
2022-07-31T06:29:41.866Z,1012.62
2022-07-31T06:30:34.843Z,1012.60
2022-07-31T06:31:34.773Z,1012.63
2022-07-31T06:32:34.717Z,1012.62
2022-07-31T06:33:37.525Z,1012.59
2022-07-31T06:34:34.619Z,1012.65
2022-07-31T06:35:34.556Z,1012.65
2022-07-31T06:36:34.487Z,1012.65
2022-07-31T06:37:34.433Z,1012.63
2022-07-31T06:38:34.383Z,1012.65
2022-07-31T06:39:55.453Z,1012.61
2022-07-31T06:40:34.374Z,1012.62
2022-07-31T06:41:34.368Z,1012.62
2022-07-31T06:42:34.203Z,1012.62
2022-07-31T06:43:34.186Z,1012.62
2022-07-31T06:44:34.113Z,1012.65
2022-07-31T06:45:51.295Z,1012.64
2022-07-31T06:46:34.018Z,1012.62
2022-07-31T06:47:33.927Z,1012.64
2022-07-31T06:48:33.918Z,1012.65
2022-07-31T06:49:33.921Z,1012.66
2022-07-31T06:50:33.749Z,1012.61
2022-07-31T06:51:33.731Z,1012.61
2022-07-31T06:52:33.719Z,1012.61
2022-07-31T06:53:33.665Z,1012.53
2022-07-31T06:54:33.549Z,1012.55
2022-07-31T06:55:33.467Z,1012.58
2022-07-31T06:56:33.452Z,1012.55
2022-07-31T06:57:33.379Z,1012.59
2022-07-31T06:58:33.367Z,1012.57
2022-07-31T06:59:40.604Z,1012.61
2022-07-31T07:00:33.267Z,1012.62
2022-07-31T07:01:33.272Z,1012.64
2022-07-31T07:02:33.170Z,1012.64
2022-07-31T07:03:33.101Z,1012.64
2022-07-31T07:05:06.326Z,1012.62
2022-07-31T07:05:33.021Z,1012.66
2022-07-31T07:06:32.900Z,1012.64
2022-07-31T07:07:32.827Z,1012.61
2022-07-31T07:08:32.830Z,1012.61
2022-07-31T07:09:32.806Z,1012.62
2022-07-31T07:10:32.725Z,1012.62
2022-07-31T07:11:32.623Z,1012.59
2022-07-31T07:12:32.553Z,1012.64
2022-07-31T07:13:45.817Z,1012.62
2022-07-31T07:14:32.470Z,1012.59
2022-07-31T07:15:32.460Z,1012.60
2022-07-31T07:16:32.351Z,1012.60
2022-07-31T07:17:32.279Z,1012.58
2022-07-31T07:18:32.274Z,1012.58
2022-07-31T07:19:32.192Z,1012.59
2022-07-31T07:20:32.172Z,1012.55
2022-07-31T07:21:32.079Z,1012.61
2022-07-31T07:22:32.342Z,1012.62
2022-07-31T07:23:31.985Z,1012.67
2022-07-31T07:24:31.919Z,1012.59
2022-07-31T07:25:31.916Z,1012.56
2022-07-31T07:26:31.805Z,1012.64
2022-07-31T07:27:31.828Z,1012.56
2022-07-31T07:28:31.800Z,1012.59
2022-07-31T07:29:31.640Z,1012.56
2022-07-31T07:30:31.628Z,1012.59
2022-07-31T07:31:31.557Z,1012.55
2022-07-31T07:32:31.465Z,1012.60
2022-07-31T07:33:40.604Z,1012.57
2022-07-31T07:34:31.383Z,1012.52
2022-07-31T07:35:34.109Z,1012.53
2022-07-31T07:36:31.232Z,1012.49
2022-07-31T07:37:31.175Z,1012.50
2022-07-31T07:38:31.157Z,1012.51
2022-07-31T07:39:31.059Z,1012.47
2022-07-31T07:40:31.046Z,1012.46
2022-07-31T07:41:30.964Z,1012.46
2022-07-31T07:42:30.920Z,1012.44
2022-07-31T07:43:30.850Z,1012.42
2022-07-31T07:44:30.795Z,1012.42
2022-07-31T07:45:30.756Z,1012.36
2022-07-31T07:46:30.705Z,1012.30
2022-07-31T07:47:53.912Z,1012.33
2022-07-31T07:48:30.588Z,1012.36
2022-07-31T07:49:30.581Z,1012.34
2022-07-31T07:50:30.486Z,1012.34
2022-07-31T07:51:30.440Z,1012.30
2022-07-31T07:52:30.373Z,1012.31
2022-07-31T07:53:30.349Z,1012.32
2022-07-31T07:54:30.261Z,1012.31
2022-07-31T07:55:37.414Z,1012.29
2022-07-31T07:56:30.167Z,1012.28
2022-07-31T07:57:30.116Z,1012.28
2022-07-31T07:58:30.057Z,1012.26
2022-07-31T07:59:30.002Z,1012.22
2022-07-31T08:00:29.944Z,1012.23
2022-07-31T08:01:29.986Z,1012.25
2022-07-31T08:02:29.849Z,1012.26
2022-07-31T08:03:48.492Z,1012.20
2022-07-31T08:04:29.741Z,1012.23
2022-07-31T08:05:29.696Z,1012.22
2022-07-31T08:06:29.658Z,1012.18
2022-07-31T08:07:42.659Z,1012.21
2022-07-31T08:08:29.525Z,1012.21
2022-07-31T08:09:29.473Z,1012.19
2022-07-31T08:10:29.436Z,1012.21
2022-07-31T08:11:29.368Z,1012.23
2022-07-31T08:12:29.315Z,1012.19
2022-07-31T08:13:29.266Z,1012.18
2022-07-31T08:14:29.212Z,1012.22
2022-07-31T08:15:29.160Z,1012.23
2022-07-31T08:16:29.114Z,1012.25
2022-07-31T08:17:29.055Z,1012.22
2022-07-31T08:18:29.011Z,1012.24
2022-07-31T08:19:28.956Z,1012.25
2022-07-31T08:20:28.939Z,1012.27
2022-07-31T08:21:28.848Z,1012.29
2022-07-31T08:22:28.798Z,1012.26
2022-07-31T08:23:28.768Z,1012.27
2022-07-31T08:24:28.687Z,1012.22
2022-07-31T08:25:31.171Z,1012.26
2022-07-31T08:26:28.585Z,1012.23
2022-07-31T08:27:39.626Z,1012.26
2022-07-31T08:28:28.489Z,1012.29
2022-07-31T08:29:28.963Z,1012.24
2022-07-31T08:30:31.125Z,1012.29
2022-07-31T08:31:28.331Z,1012.29
2022-07-31T08:32:28.290Z,1012.26
2022-07-31T08:33:28.228Z,1012.30
2022-07-31T08:34:30.965Z,1012.27
2022-07-31T08:35:28.129Z,1012.30
2022-07-31T08:36:28.068Z,1012.32
2022-07-31T08:37:51.298Z,1012.31
2022-07-31T08:38:27.968Z,1012.29
2022-07-31T08:39:27.907Z,1012.30
2022-07-31T08:40:27.859Z,1012.27
2022-07-31T08:41:27.804Z,1012.30
2022-07-31T08:42:27.756Z,1012.30
2022-07-31T08:44:01.685Z,1012.30
2022-07-31T08:44:27.649Z,1012.29
2022-07-31T08:45:27.601Z,1012.25
2022-07-31T08:46:27.558Z,1012.24
2022-07-31T08:47:27.507Z,1012.22
2022-07-31T08:48:27.449Z,1012.19
2022-07-31T08:49:27.468Z,1012.19
2022-07-31T08:50:27.417Z,1012.18
2022-07-31T08:51:27.365Z,1012.23
2022-07-31T08:52:27.250Z,1012.20
2022-07-31T08:53:27.194Z,1012.17
2022-07-31T08:54:27.165Z,1012.13
2022-07-31T08:55:55.544Z,1012.13
2022-07-31T08:56:27.053Z,1012.11
2022-07-31T08:57:26.991Z,1012.12
2022-07-31T08:58:26.940Z,1012.11
2022-07-31T08:59:26.884Z,1012.11
2022-07-31T09:00:26.833Z,1012.11
2022-07-31T09:01:26.900Z,1012.11
2022-07-31T09:02:26.728Z,1012.09
2022-07-31T09:03:26.686Z,1012.10
2022-07-31T09:04:26.639Z,1012.07
2022-07-31T09:05:26.593Z,1012.07
2022-07-31T09:06:26.528Z,1012.08
2022-07-31T09:07:26.481Z,1012.03
2022-07-31T09:08:26.446Z,1012.05
2022-07-31T09:09:41.330Z,1012.04
2022-07-31T09:10:26.330Z,1012.02
2022-07-31T09:11:26.276Z,1012.06
2022-07-31T09:12:33.167Z,1012.00
2022-07-31T09:13:26.177Z,1012.01
2022-07-31T09:14:26.138Z,1011.97
2022-07-31T09:15:26.092Z,1011.97
2022-07-31T09:16:30.758Z,1011.95
2022-07-31T09:17:25.975Z,1011.94
2022-07-31T09:18:25.924Z,1011.95
2022-07-31T09:19:51.626Z,1011.93
2022-07-31T09:20:25.826Z,1011.93
2022-07-31T09:21:25.771Z,1011.96
2022-07-31T09:22:25.731Z,1011.95
2022-07-31T09:23:25.670Z,1011.93
2022-07-31T09:24:25.623Z,1011.93
2022-07-31T09:25:25.573Z,1011.93
2022-07-31T09:26:25.535Z,1011.92
2022-07-31T09:27:25.496Z,1011.87
2022-07-31T09:28:25.427Z,1011.91
2022-07-31T09:29:25.402Z,1011.87
2022-07-31T09:30:25.352Z,1011.87
2022-07-31T09:31:25.293Z,1011.85
2022-07-31T09:32:25.222Z,1011.83
2022-07-31T09:33:25.177Z,1011.88
2022-07-31T09:34:25.117Z,1011.84
2022-07-31T09:35:25.067Z,1011.81
2022-07-31T09:36:25.019Z,1011.87
2022-07-31T09:37:24.969Z,1011.83
2022-07-31T09:38:24.933Z,1011.84
2022-07-31T09:39:27.084Z,1011.77
2022-07-31T09:40:24.819Z,1011.77
2022-07-31T09:42:01.339Z,1011.75
2022-07-31T09:42:24.719Z,1011.75
2022-07-31T09:43:24.687Z,1011.76
2022-07-31T09:44:26.079Z,1011.79
2022-07-31T09:45:24.567Z,1011.73
2022-07-31T09:46:24.526Z,1011.79
2022-07-31T09:47:24.500Z,1011.76
2022-07-31T09:48:26.580Z,1011.77
2022-07-31T09:49:24.413Z,1011.77
2022-07-31T09:50:24.330Z,1011.74
2022-07-31T09:51:24.277Z,1011.73
2022-07-31T09:52:24.260Z,1011.76
2022-07-31T09:53:24.180Z,1011.76
2022-07-31T09:54:24.125Z,1011.78
2022-07-31T09:55:24.077Z,1011.68
2022-07-31T09:56:24.030Z,1011.75
2022-07-31T09:57:23.976Z,1011.72
2022-07-31T09:58:23.931Z,1011.71
2022-07-31T09:59:23.880Z,1011.73
2022-07-31T10:00:23.825Z,1011.69
2022-07-31T10:01:23.799Z,1011.70
2022-07-31T10:02:23.735Z,1011.67
2022-07-31T10:03:23.677Z,1011.71
2022-07-31T10:04:23.628Z,1011.71
2022-07-31T10:05:23.573Z,1011.65
2022-07-31T10:06:23.527Z,1011.71
2022-07-31T10:07:32.529Z,1011.70
2022-07-31T10:08:23.440Z,1011.69
2022-07-31T10:09:23.380Z,1011.69
2022-07-31T10:10:23.328Z,1011.64
2022-07-31T10:11:23.275Z,1011.67
2022-07-31T10:12:23.221Z,1011.66
2022-07-31T10:13:23.200Z,1011.59
2022-07-31T10:14:23.123Z,1011.60
2022-07-31T10:15:23.069Z,1011.64
2022-07-31T10:16:23.020Z,1011.60
2022-07-31T10:17:22.968Z,1011.62
2022-07-31T10:18:36.099Z,1011.60
2022-07-31T10:19:22.866Z,1011.59
2022-07-31T10:20:22.836Z,1011.57
2022-07-31T10:21:22.762Z,1011.60
2022-07-31T10:22:22.720Z,1011.64
2022-07-31T10:23:22.699Z,1011.59
2022-07-31T10:24:27.762Z,1011.62
2022-07-31T10:25:22.571Z,1011.61
2022-07-31T10:26:34.289Z,1011.55
2022-07-31T10:27:22.461Z,1011.60
2022-07-31T10:28:22.407Z,1011.55
2022-07-31T10:29:22.359Z,1011.52
2022-07-31T10:30:27.365Z,1011.50
2022-07-31T10:31:22.260Z,1011.50
2022-07-31T10:32:22.207Z,1011.48
2022-07-31T10:33:43.065Z,1011.47
2022-07-31T10:34:22.105Z,1011.45
2022-07-31T10:35:22.056Z,1011.44
2022-07-31T10:36:22.006Z,1011.43
2022-07-31T10:37:21.957Z,1011.44
2022-07-31T10:38:21.905Z,1011.39
2022-07-31T10:39:21.854Z,1011.39
2022-07-31T10:40:21.803Z,1011.42
2022-07-31T10:41:21.758Z,1011.47
2022-07-31T10:42:21.701Z,1011.43
2022-07-31T10:43:21.654Z,1011.43
2022-07-31T10:44:21.601Z,1011.43
2022-07-31T10:45:21.553Z,1011.40
2022-07-31T10:46:21.499Z,1011.44
2022-07-31T10:47:21.457Z,1011.44
2022-07-31T10:48:21.397Z,1011.42
2022-07-31T10:49:21.409Z,1011.41
2022-07-31T10:50:21.301Z,1011.48
2022-07-31T10:51:21.250Z,1011.48
2022-07-31T10:52:21.196Z,1011.43
2022-07-31T10:53:21.152Z,1011.42
2022-07-31T10:54:21.094Z,1011.36
2022-07-31T10:55:21.048Z,1011.33
2022-07-31T10:56:20.993Z,1011.29
2022-07-31T10:57:20.944Z,1011.33
2022-07-31T10:58:20.895Z,1011.35
2022-07-31T10:59:20.843Z,1011.29
2022-07-31T11:00:20.791Z,1011.28
2022-07-31T11:01:20.763Z,1011.30
2022-07-31T11:02:20.691Z,1011.29
2022-07-31T11:03:20.664Z,1011.30
2022-07-31T11:04:20.591Z,1011.28
2022-07-31T11:05:20.538Z,1011.31
2022-07-31T11:06:20.487Z,1011.33
2022-07-31T11:07:20.449Z,1011.27
2022-07-31T11:08:20.385Z,1011.24
2022-07-31T11:09:20.336Z,1011.28
2022-07-31T11:10:20.285Z,1011.26
2022-07-31T11:11:23.528Z,1011.26
2022-07-31T11:12:20.184Z,1011.27
2022-07-31T11:13:20.133Z,1011.27
2022-07-31T11:14:20.081Z,1011.23
2022-07-31T11:15:20.032Z,1011.23
2022-07-31T11:16:19.983Z,1011.20
2022-07-31T11:17:19.929Z,1011.23
2022-07-31T11:18:24.370Z,1011.25
2022-07-31T11:19:19.831Z,1011.26
2022-07-31T11:20:19.775Z,1011.21
2022-07-31T11:21:37.758Z,1011.22
2022-07-31T11:22:31.421Z,1011.17
2022-07-31T11:23:19.624Z,1011.21
2022-07-31T11:24:19.572Z,1011.19
2022-07-31T11:25:19.589Z,1011.24
2022-07-31T11:26:19.476Z,1011.20
2022-07-31T11:27:19.419Z,1011.17
2022-07-31T11:28:19.380Z,1011.21
2022-07-31T11:30:01.217Z,1011.22
2022-07-31T11:30:19.265Z,1011.20
2022-07-31T11:31:19.230Z,1011.16
2022-07-31T11:32:24.763Z,1011.15
2022-07-31T11:33:19.109Z,1011.13
2022-07-31T11:34:19.063Z,1011.19
2022-07-31T11:35:19.608Z,1011.22
2022-07-31T11:36:18.957Z,1011.17
2022-07-31T11:37:18.903Z,1011.19
2022-07-31T11:38:18.853Z,1011.19
2022-07-31T11:39:18.799Z,1011.13
2022-07-31T11:40:18.795Z,1011.12
2022-07-31T11:41:19.582Z,1011.11
2022-07-31T11:42:18.676Z,1011.13
2022-07-31T11:43:26.428Z,1011.12
2022-07-31T11:44:18.584Z,1011.10
2022-07-31T11:45:18.522Z,1011.13
2022-07-31T11:46:18.494Z,1011.08
2022-07-31T11:48:09.470Z,1011.10
2022-07-31T11:48:19.274Z,1011.06
2022-07-31T11:49:18.435Z,1011.10
2022-07-31T11:50:18.318Z,1011.03
2022-07-31T11:51:18.219Z,1010.96
2022-07-31T11:52:31.293Z,1011.03
2022-07-31T11:53:18.130Z,1011.02
2022-07-31T11:54:18.134Z,1011.02
2022-07-31T11:55:18.041Z,1011.03
2022-07-31T11:56:17.950Z,1010.97
2022-07-31T11:57:17.958Z,1010.97
2022-07-31T11:58:17.864Z,1010.99
2022-07-31T11:59:45.066Z,1010.95
2022-07-31T12:00:26.834Z,1010.95
2022-07-31T12:01:17.701Z,1010.96
2022-07-31T12:02:17.707Z,1010.92
2022-07-31T12:03:17.587Z,1010.94
2022-07-31T12:04:17.585Z,1010.97
2022-07-31T12:05:17.489Z,1010.91